Latest Weather Observations for Evans Head

IDN60801

Issued at 10:05 pm EST Saturday 30 August 2014 (issued every 30 minutes, with the page automatically refreshed every 10 minutes)

About weather observations | Map of weather stations | Latest weather observations for NSW | Other Formats
Station Details ID: 058212 Name: EVANS HEAD RAAF BOMBING RANGE AWS Lat: -29.18 Lon: 153.40 Height: 62.5 m
Data from the previous 72 hours. | See also: Recent months at Evans Head
Date/Time
EST
Temp
°C
App
Temp
°C
Dew
Point
Rel
Hum
%
Delta-T
°C
Wind Press
QNH
hPa
Press
MSL
hPa
Rain
since 9 am
mm
Dir
 
Spd
km/h
Gust
km/h
Spd
kts
Gust
kts
30/10:00pm 15.3 12.8 12.4 83 1.6 SSW 17 22 9 12 1018.2 1018.1 0.0
30/09:30pm 15.6 13.0 13.1 85 1.4 SSW 19 24 10 13 1018.2 - 0.0
30/09:00pm 15.9 13.8 14.8 93 0.6 SSW 19 26 10 14 1018.1 1018.0 0.0
30/08:30pm 16.3 14.8 15.2 93 0.6 SSW 17 24 9 13 1018.1 - 0.0
30/08:00pm 16.5 15.0 15.2 92 0.8 SSW 17 24 9 13 1018.0 1017.9 0.0
30/07:30pm 16.8 15.8 15.5 92 0.8 SSW 15 22 8 12 1017.8 - 0.0
30/07:00pm 17.0 14.4 14.8 87 1.3 S 22 33 12 18 1017.6 1017.5 0.0
30/06:30pm 17.2 14.6 14.8 86 1.4 S 22 30 12 16 1017.4 - 0.0
30/06:00pm 17.3 14.3 14.8 85 1.4 S 24 33 13 18 1017.4 1017.3 0.0
30/05:30pm 17.3 15.0 14.0 81 1.9 SSW 19 26 10 14 1017.2 - 0.0
30/05:00pm 17.9 15.2 13.6 76 2.4 S 20 30 11 16 1017.0 1016.9 0.0
30/04:30pm 18.2 15.8 13.7 75 2.6 S 19 26 10 14 1016.8 - 0.0
30/04:00pm 18.2 15.3 12.9 71 3.0 S 20 30 11 16 1016.7 1016.6 0.0
30/03:30pm 19.7 15.6 12.7 64 4.0 S 26 41 14 22 1016.7 - 0.0
30/03:00pm 18.3 15.0 12.7 70 3.1 S 22 32 12 17 1016.9 1016.8 0.0
30/02:30pm 20.7 16.5 13.4 63 4.2 S 28 41 15 22 1016.8 - 0.0
30/02:00pm 20.0 15.7 13.2 65 3.9 S 28 39 15 21 1016.9 1016.8 0.0
30/01:30pm 19.6 15.5 12.8 65 3.8 S 26 35 14 19 1017.2 - 0.0
30/01:00pm 20.4 17.3 13.4 64 4.0 SSE 22 32 12 17 1017.5 1017.4 0.0
30/12:30pm 20.4 17.4 11.9 58 4.7 SSE 19 24 10 13 1017.8 - 0.0
30/12:00pm 20.2 16.8 11.1 56 5.0 S 20 26 11 14 1018.3 1018.2 0.0
30/11:30am 20.2 16.7 10.9 55 5.1 S 20 30 11 16 1018.6 - 0.0
30/11:00am 19.3 17.1 10.8 58 4.6 S 13 26 7 14 1018.8 1018.7 0.0
30/10:30am 18.5 16.7 9.6 56 4.7 W 9 17 5 9 1019.1 - 0.0
30/10:00am 18.1 15.1 7.8 51 5.2 WSW 13 20 7 11 1019.3 1019.2 0.0
30/09:30am 17.0 14.0 7.6 54 4.7 W 13 22 7 12 1019.4 - 0.0
30/09:00am 17.1 13.2 7.2 52 4.9 WNW 17 24 9 13 1019.4 1019.3 0.0
30/08:30am 15.4 12.2 6.7 56 4.3 WNW 13 20 7 11 1019.4 - 0.0
30/08:00am 14.2 10.8 5.8 57 4.0 W 13 22 7 12 1019.3 1019.2 0.0
30/07:30am 14.1 10.6 5.5 56 4.1 WNW 13 20 7 11 1019.2 - 0.0
30/07:00am 12.9 8.9 4.8 58 3.7 W 15 22 8 12 1018.9 1018.8 0.0
30/06:30am 11.5 8.3 5.2 65 2.9 NW 11 15 6 8 1018.7 - 0.0
30/06:00am 11.1 8.0 5.4 68 2.6 NW 11 15 6 8 1018.5 1018.4 0.0
30/05:30am 11.6 8.4 5.0 64 3.0 WNW 11 17 6 9 1018.3 - 0.0
30/05:00am 10.8 7.1 4.7 66 2.8 WNW 13 19 7 10 1018.1 1018.0 0.0
30/04:30am 11.0 7.3 4.7 65 2.8 WNW 13 20 7 11 1017.9 - 0.0
30/04:00am 11.3 7.6 4.5 63 3.1 WNW 13 19 7 10 1017.9 1017.8 0.0
30/03:30am 11.5 7.8 4.7 63 3.1 WNW 13 20 7 11 1017.9 - 0.0
30/03:00am 11.6 7.9 4.3 61 3.3 WNW 13 20 7 11 1017.9 1017.8 0.0
30/02:30am 11.9 8.2 4.4 60 3.4 WSW 13 20 7 11 1018.4 - 0.0
30/02:00am 11.6 7.2 5.0 64 3.0 WSW 17 20 9 11 1018.6 1018.5 0.0
30/01:30am 11.6 6.7 5.3 65 2.9 WSW 20 28 11 15 1018.8 - 0.0
30/01:00am 12.0 7.4 5.6 65 3.0 WSW 19 24 10 13 1019.3 1019.2 0.0
30/12:30am 12.6 8.0 5.8 63 3.2 WSW 19 22 10 12 1019.5 - 0.0
30/12:00am 12.8 8.6 5.9 63 3.2 WSW 17 20 9 11 1019.7 1019.6 0.0
 
Date/Time
EST
Temp
°C
App
Temp
°C
Dew
Point
Rel
Hum
%
Delta-T
°C
Wind Press
QNH
hPa
Press
MSL
hPa
Rain
since 9 am
mm
Dir
 
Spd
km/h
Gust
km/h
Spd
kts
Gust
kts
29/11:30pm 13.0 8.9 6.1 63 3.3 WSW 17 19 9 10 1019.7 - 0.0
29/11:00pm 13.2 9.9 6.3 63 3.3 W 13 15 7 8 1020.0 1019.9 0.0
29/10:30pm 13.3 9.9 5.9 61 3.5 WSW 13 19 7 10 1020.2 - 0.0
29/10:00pm 13.9 9.8 6.3 60 3.6 WSW 17 22 9 12 1020.3 1020.2 0.0
29/09:30pm 13.8 10.6 6.7 62 3.4 WSW 13 17 7 9 1020.6 - 0.0
29/09:00pm 14.2 10.6 6.6 60 3.7 WSW 15 19 8 10 1020.4 1020.3 0.0
29/08:30pm 14.1 11.4 7.4 64 3.3 WSW 11 15 6 8 1020.4 - 0.0
29/08:00pm 14.9 11.4 7.2 60 3.8 SW 15 19 8 10 1020.4 1020.3 0.0
29/07:30pm 15.0 12.2 8.7 66 3.2 WSW 13 17 7 9 1020.5 - 0.0
29/07:00pm 15.4 12.4 9.1 66 3.2 SSW 15 22 8 12 1020.4 1020.3 0.0
29/06:30pm 15.9 11.0 8.6 62 3.7 S 24 33 13 18 1020.2 - 0.0
29/06:00pm 15.9 11.1 8.9 63 3.6 S 24 33 13 18 1019.8 1019.7 0.0
29/05:30pm 16.3 9.8 8.3 59 4.1 S 32 41 17 22 1019.5 - 0.0
29/05:00pm 16.6 11.5 9.1 61 3.9 S 26 39 14 21 1019.5 1019.4 0.0
29/04:30pm 17.2 12.5 9.1 59 4.2 S 24 35 13 19 1019.4 - 0.0
29/04:00pm 17.7 12.1 8.6 55 4.7 S 28 37 15 20 1019.4 1019.3 0.0
29/03:30pm 17.6 12.4 8.7 56 4.6 S 26 37 14 20 1019.4 - 0.0
29/03:00pm 18.1 12.0 6.6 47 5.7 S 28 39 15 21 1019.4 1019.3 0.0
29/02:30pm 18.9 13.6 9.9 56 4.8 S 28 41 15 22 1019.6 - 0.0
29/02:00pm 18.8 13.2 8.7 52 5.2 S 28 44 15 24 1019.9 1019.8 0.0
29/01:30pm 19.4 13.0 8.7 50 5.6 S 32 46 17 25 1020.1 - 0.0
29/01:00pm 18.5 13.7 9.0 54 5.0 S 24 33 13 18 1020.4 1020.3 0.0
29/12:30pm 19.5 14.2 8.5 49 5.7 S 26 37 14 20 1020.8 - 0.0
29/12:00pm 18.1 13.0 7.8 51 5.2 S 24 33 13 18 1021.3 1021.2 0.0
29/11:30am 19.0 14.8 8.4 50 5.5 SSW 20 28 11 15 1021.7 - 0.0
29/11:00am 18.3 13.3 8.0 51 5.3 SSW 24 37 13 20 1022.1 1022.0 0.0
29/10:30am 18.2 13.5 9.3 56 4.7 S 24 33 13 18 1022.4 - 0.0
29/10:00am 17.1 12.4 7.7 54 4.7 SSW 22 35 12 19 1022.7 1022.6 0.0
29/09:30am 16.7 12.0 7.6 55 4.6 SSW 22 37 12 20 1022.8 - 0.0
29/09:00am 16.0 11.2 7.2 56 4.4 SSW 22 33 12 18 1022.8 1022.7 2.0
29/08:30am 15.3 10.5 7.3 59 4.0 SSW 22 33 12 18 1023.0 - 2.0
29/08:00am 14.3 9.9 7.6 64 3.3 SW 20 30 11 16 1022.9 1022.8 2.0
29/07:30am 13.2 8.7 7.0 66 3.0 SW 20 28 11 15 1022.7 - 2.0
29/07:00am 12.3 8.0 7.0 70 2.5 WSW 19 26 10 14 1022.4 1022.3 2.0
29/06:30am 11.6 7.3 6.9 73 2.2 WSW 19 26 10 14 1022.0 - 2.0
29/06:00am 11.6 7.4 7.3 75 2.1 WSW 19 26 10 14 1021.9 1021.8 2.0
29/05:30am 11.4 7.3 7.7 78 1.8 WSW 19 24 10 13 1021.6 - 2.0
29/05:00am 11.6 7.3 7.9 78 1.8 WSW 20 26 11 14 1021.5 1021.4 2.0
29/04:30am 11.5 7.2 8.0 79 1.7 SW 20 30 11 16 1021.4 - 2.0
29/04:00am 11.7 8.1 8.2 79 1.7 SW 17 24 9 13 1021.5 1021.4 2.0
29/03:30am 11.9 7.7 8.2 78 1.8 SW 20 26 11 14 1021.5 - 2.0
29/03:00am 12.3 7.7 8.2 76 2.0 SW 22 30 12 16 1021.5 1021.4 2.0
29/02:30am 12.4 7.8 8.3 76 2.0 SW 22 30 12 16 1021.4 - 2.0
29/02:00am 12.6 8.6 8.3 75 2.1 SW 19 26 10 14 1021.7 1021.6 2.0
29/01:30am 12.7 8.7 8.4 75 2.1 WSW 19 24 10 13 1021.8 - 2.0
29/01:00am 13.0 8.8 8.3 73 2.3 SW 20 28 11 15 1022.0 1021.9 2.0
29/12:30am 13.5 8.6 8.6 72 2.5 SW 24 33 13 18 1021.9 - 2.0
29/12:00am 13.7 9.2 8.5 71 2.6 SW 22 32 12 17 1022.1 1022.0 2.0
 
Date/Time
EST
Temp
°C
App
Temp
°C
Dew
Point
Rel
Hum
%
Delta-T
°C
Wind Press
QNH
hPa
Press
MSL
hPa
Rain
since 9 am
mm
Dir
 
Spd
km/h
Gust
km/h
Spd
kts
Gust
kts
28/11:30pm 13.2 8.5 9.1 76 2.1 SSW 24 32 13 17 1022.0 - 2.0
28/11:00pm 13.4 8.7 9.3 76 2.1 SSW 24 32 13 17 1022.1 1022.0 2.0
28/10:30pm 13.8 9.2 9.6 76 2.2 SSW 24 33 13 18 1022.2 - 2.0
28/10:00pm 14.2 10.1 10.2 77 2.1 SSW 22 32 12 17 1022.5 1022.4 2.0
28/09:30pm 14.0 9.2 10.4 79 1.9 SSW 26 37 14 20 1022.3 - 2.0
28/09:00pm 13.7 9.4 10.9 83 1.5 SW 24 37 13 20 1022.4 1022.3 2.0
28/08:30pm 14.0 10.8 12.0 88 1.1 SW 20 32 11 17 1022.5 - 2.0
28/08:00pm 14.0 10.9 13.5 97 0.3 SSW 22 30 12 16 1022.4 1022.3 2.0
28/07:42pm 14.0 9.8 13.5 97 0.3 SSW 28 46 15 25 1022.2 - 2.0
28/07:30pm 14.3 9.4 13.8 97 0.3 SSW 32 48 17 26 1022.2 - 2.0
28/07:00pm 13.6 10.0 13.1 97 0.3 SW 24 33 13 18 1021.8 1021.7 2.0
28/06:30pm 13.5 10.7 13.2 98 0.2 SSW 20 30 11 16 1021.6 - 2.0
28/06:11pm 14.0 9.8 13.5 97 0.3 SSW 28 61 15 33 1021.5 - 0.8
28/06:00pm 13.9 9.3 13.4 97 0.3 S 30 44 16 24 1021.2 1021.1 0.4
28/05:49pm 13.9 7.6 13.4 97 0.3 SSW 39 57 21 31 1021.2 - 0.4
28/05:43pm 14.9 7.9 13.8 93 0.6 S 43 56 23 30 1020.8 - 0.2
28/05:30pm 15.7 12.6 12.1 79 2.0 SSW 20 28 11 15 1020.6 - 0.0
28/05:00pm 15.6 12.2 12.5 82 1.7 SSW 22 33 12 18 1020.5 1020.4 0.0
28/04:30pm 15.0 10.6 11.6 80 1.8 SSW 26 35 14 19 1020.4 - 0.0
28/04:21pm 15.4 6.3 11.2 76 2.3 SSW 50 69 27 37 1020.3 - 0.0
28/04:19pm 15.7 5.4 11.1 74 2.5 SSW 56 69 30 37 1020.1 - 0.0
28/04:03pm 16.4 10.2 11.3 72 2.8 SSW 35 54 19 29 1019.8 - 0.0
28/04:00pm 16.5 9.6 11.6 73 2.7 SSW 39 54 21 29 1019.7 1019.6 0.0
28/03:32pm 18.0 10.5 10.9 63 3.8 S 41 61 22 33 1018.9 - 0.0
28/03:30pm 18.4 10.9 11.0 62 4.0 S 41 54 22 29 1018.9 - 0.0
28/03:00pm 18.7 10.9 11.0 61 4.2 S 43 63 23 34 1018.8 1018.7 0.0
28/02:30pm 18.9 10.3 10.2 57 4.7 S 46 65 25 35 1018.5 - 0.0
28/02:00pm 19.0 10.5 10.8 59 4.4 S 46 69 25 37 1018.6 1018.5 0.0
28/01:31pm 19.6 12.6 12.6 64 3.9 S 41 59 22 32 1018.6 - 0.0
28/01:30pm 19.6 12.6 12.6 64 3.9 S 41 57 22 31 1018.6 - 0.0
28/01:09pm 18.4 10.8 11.9 66 3.6 S 43 61 23 33 1018.5 - 0.0
28/01:00pm 19.7 12.8 12.7 64 3.9 S 41 56 22 30 1018.5 1018.4 0.0
28/12:31pm 19.6 11.9 12.1 62 4.2 S 44 63 24 34 1018.5 - 0.0
28/12:30pm 19.5 11.2 11.3 59 4.5 S 46 63 25 34 1018.5 - 0.0
28/12:02pm 20.1 13.3 12.1 60 4.5 S 39 57 21 31 1018.7 - 0.0
28/12:00pm 19.9 12.6 11.7 59 4.5 S 41 57 22 31 1018.7 1018.6 0.0
28/11:31am 19.5 11.8 11.5 60 4.4 S 43 61 23 33 1018.8 - 0.0
28/11:30am 19.6 12.1 12.1 62 4.2 S 43 59 23 32 1018.8 - 0.0
28/11:03am 19.5 11.9 11.8 61 4.3 S 43 61 23 33 1018.9 - 0.0
28/11:00am 19.7 11.4 11.5 59 4.5 S 46 61 25 33 1018.9 1018.8 0.0
28/10:32am 18.6 11.0 12.4 67 3.5 S 44 63 24 34 1018.8 - 0.0
28/10:30am 19.0 10.8 11.8 63 4.0 S 46 63 25 34 1018.8 - 0.0
28/10:00am 19.3 10.7 11.6 61 4.2 S 48 67 26 36 1018.5 1018.4 0.0
28/09:32am 19.1 11.2 12.8 67 3.6 S 46 65 25 35 1018.2 - 0.0
28/09:30am 19.0 10.7 12.5 66 3.6 S 48 65 26 35 1018.1 - 0.0
28/09:00am 19.0 11.4 12.3 65 3.7 S 44 67 24 36 1018.0 1017.9 78.6
28/08:31am 18.3 9.0 11.8 66 3.6 S 52 70 28 38 1017.6 - 78.6
28/08:30am 18.4 9.2 12.2 67 3.4 S 52 69 28 37 1017.6 - 78.6
28/08:00am 18.2 9.7 12.0 67 3.4 S 48 76 26 41 1017.2 1017.1 78.6
28/07:30am 17.8 8.6 12.3 70 3.1 S 52 72 28 39 1016.9 - 78.6
28/07:00am 17.1 8.4 12.6 75 2.5 S 50 72 27 39 1016.3 1016.2 78.6
28/06:30am 16.9 8.6 12.6 76 2.4 S 48 69 26 37 1016.2 - 78.6
28/06:01am 17.0 8.1 13.1 78 2.2 S 52 70 28 38 1015.8 - 78.6
28/06:00am 17.0 8.5 13.3 79 2.1 S 50 65 27 35 1015.8 1015.7 78.6
28/05:32am 17.1 9.6 14.0 82 1.8 S 46 65 25 35 1015.4 - 78.6
28/05:30am 17.0 9.1 13.7 81 1.9 S 48 65 26 35 1015.4 - 78.6
28/05:05am 17.0 8.2 13.5 80 2.0 S 52 72 28 39 1014.9 - 78.6
28/05:00am 16.9 8.1 13.4 80 2.0 S 52 69 28 37 1014.9 1014.8 78.6
28/04:43am 16.7 9.6 14.0 84 1.5 S 44 63 24 34 1015.0 - 78.6
28/04:30am 16.6 9.1 15.0 90 0.9 S 48 65 26 35 1014.9 - 78.6
28/04:05am 16.0 10.0 15.5 97 0.3 S 41 59 22 32 1014.7 - 78.6
28/04:00am 17.0 10.3 14.5 85 1.4 S 43 59 23 32 1014.6 1014.5 78.2
28/03:37am 17.0 10.3 14.6 86 1.4 S 43 63 23 34 1014.4 - 78.2
28/03:30am 17.0 10.4 14.8 87 1.3 S 43 57 23 31 1014.5 - 78.2
28/03:00am 17.0 10.1 14.5 85 1.4 S 44 65 24 35 1014.6 1014.5 78.2
28/02:30am 16.8 10.5 15.7 93 0.6 SSE 43 67 23 36 1014.6 - 78.2
28/02:08am 16.5 10.7 16.0 97 0.3 S 41 59 22 32 1014.6 - 78.2
28/02:00am 16.6 10.8 16.1 97 0.3 S 41 54 22 29 1014.5 1014.4 78.2
28/01:31am 15.9 11.1 15.6 98 0.2 SSE 35 54 19 29 1014.7 - 78.2
28/01:30am 16.0 11.2 15.7 98 0.2 SSE 35 50 19 27 1014.7 - 78.2
28/01:00am 15.6 10.7 15.4 99 0.1 SSE 35 46 19 25 1015.1 1015.0 78.0
28/12:31am 15.1 8.5 14.9 99 0.1 SSE 43 61 23 33 1015.1 - 77.2
28/12:30am 15.1 8.3 14.9 99 0.1 SSE 44 61 24 33 1015.1 - 77.0
28/12:09am 15.5 11.5 15.3 99 0.1 SSE 30 54 16 29 1015.2 - 75.4
28/12:00am 15.4 11.4 15.2 99 0.1 SSE 30 44 16 24 1015.4 1015.3 74.6
 
Date/Time
EST
Temp
°C
App
Temp
°C
Dew
Point
Rel
Hum
%
Delta-T
°C
Wind Press
QNH
hPa
Press
MSL
hPa
Rain
since 9 am
mm
Dir
 
Spd
km/h
Gust
km/h
Spd
kts
Gust
kts
27/11:36pm 14.5 10.5 14.2 98 0.2 SE 28 63 15 34 1015.3 - 72.6
27/11:30pm 14.6 11.4 14.3 98 0.2 SSE 24 35 13 19 1015.1 - 72.6
27/11:16pm 15.0 10.8 14.7 98 0.2 SE 30 50 16 27 1015.5 - 71.4
27/11:00pm 15.7 12.2 15.4 98 0.2 SSE 28 43 15 23 1015.5 1015.4 70.6
27/10:30pm 15.1 10.0 14.8 98 0.2 SSE 35 50 19 27 1015.5 - 70.6

Other Formats:

Comma delimited format used in spreadsheet applications
http://www.bom.gov.au/fwo/IDN60801/IDN60801.94598.axf

JavaScript Object Notation format (JSON) in row-major order
http://www.bom.gov.au/fwo/IDN60801/IDN60801.94598.json